OEMO2: Okemah Hwy 56

Data processed at Tue May 21 2019 23:50


All information presented herein is the property of the government of the United States of America and may be revised or deleted at any time without prior notice.
Dissemination of this information without the expressed written consent of the Public Affairs Office, Tulsa District U.S. Army Corps of Engineers is strictly prohibited.
These data are gathered electronically and, as presented, have not undergone any form of quality control. These data are not guaranteed to be valid or correct.
Go to home page.
Go to station list.
Go to home page.

Upstream stations:

Downstream station:
Previous Day
Next Day
Current Day
    
SHEF ID:       OEMO2     Okemah Hwy 56
STATION TYPE:  

               PRECIP     STAGE  RIV-FLOW   VOLTAGE  BAT-LOAD
                   in        ft       cfs      volt      volt
              Ccp-Rev   Ccp-Rev   Ccp-Rev   Ccp-Rev   Ccp-Rev
(US/Central)
05/21 00:00      0.00     13.69      4726     12.65     12.65
05/21 01:00      0.00     13.62      4652     12.65     12.57
05/21 02:00      0.00     13.57      4600     12.65     12.57
05/21 03:00      0.00     13.58      4611     12.65     12.57
05/21 04:00      0.00     13.51      4538     12.65     12.57
05/21 05:00      0.00     13.44      4466     12.65     12.57
05/21 06:00      0.57     13.48      4507     12.65     12.49
05/21 07:00      0.26     13.58      4611     12.65     12.49
05/21 08:00      0.17     14.02      5083     12.65     12.49
05/21 09:00      0.02     14.61      5766     12.81     12.57
05/21 10:00      0.03     15.03      6271     12.97     12.81
05/21 11:00      0.03     15.27      6566     13.05     12.97
05/21 12:00      0.00     15.29      6590     13.21     13.05
05/21 13:00      0.00     15.18      6454     13.53     13.29
05/21 14:00      0.00     15.19      6467     13.44     13.37
05/21 15:00      0.00     15.12      6381     14.16     13.29
05/21 16:00      0.00     15.11      6368     14.16     13.29
05/21 17:00      0.00     15.31      6615     13.37     13.29
05/21 18:00      0.00     15.42      6752     13.68     13.21
05/21 19:00      0.00     15.46      6803     13.29     13.21
05/21 20:00      0.00     15.59      6967     13.05     13.05
05/21 21:00      0.00     15.69      7094     12.89     12.81
05/21 22:00      0.00     15.73      7145     12.81     12.65
05/21 23:00      0.00     15.62      7005     12.73     12.65